sensor_id;sensor_type;location;lat;lon;timestamp;pressure;altitude;pressure_sealevel;temperature;humidity
21988;BME280;11158;53.404;-1.510;2023-05-18T00:01:36;101707.88;;;16.01;48.03
21988;BME280;11158;53.404;-1.510;2023-05-18T00:04:24;101705.75;;;15.96;48.37
21988;BME280;11158;53.404;-1.510;2023-05-18T00:07:09;101716.91;;;15.48;49.07
21988;BME280;11158;53.404;-1.510;2023-05-18T00:09:53;101709.34;;;15.29;49.47
21988;BME280;11158;53.404;-1.510;2023-05-18T00:12:38;101710.66;;;15.33;49.25
21988;BME280;11158;53.404;-1.510;2023-05-18T00:15:22;101711.09;;;15.37;49.33
21988;BME280;11158;53.404;-1.510;2023-05-18T00:18:06;101703.25;;;15.65;48.33
21988;BME280;11158;53.404;-1.510;2023-05-18T00:20:53;101697.94;;;16.01;47.45
21988;BME280;11158;53.404;-1.510;2023-05-18T00:23:44;101697.66;;;16.32;46.75
21988;BME280;11158;53.404;-1.510;2023-05-18T00:26:32;101701.06;;;16.63;45.79
21988;BME280;11158;53.404;-1.510;2023-05-18T00:29:17;101705.72;;;16.69;45.49
21988;BME280;11158;53.404;-1.510;2023-05-18T00:32:01;101698.78;;;17.03;44.67
21988;BME280;11158;53.404;-1.510;2023-05-18T00:34:45;101703.44;;;16.87;44.39
21988;BME280;11158;53.404;-1.510;2023-05-18T00:37:29;101695.09;;;16.67;44.65
21988;BME280;11158;53.404;-1.510;2023-05-18T00:40:14;101705.47;;;16.85;44.07
21988;BME280;11158;53.404;-1.510;2023-05-18T00:42:58;101697.84;;;17.17;43.21
21988;BME280;11158;53.404;-1.510;2023-05-18T00:45:43;101701.44;;;17.52;43.01
21988;BME280;11158;53.404;-1.510;2023-05-18T00:48:27;101708.25;;;17.48;42.80
21988;BME280;11158;53.404;-1.510;2023-05-18T00:51:11;101696.53;;;17.34;43.00
21988;BME280;11158;53.404;-1.510;2023-05-18T00:53:56;101705.25;;;17.08;43.36
21988;BME280;11158;53.404;-1.510;2023-05-18T00:56:40;101701.53;;;16.66;44.70
21988;BME280;11158;53.404;-1.510;2023-05-18T00:59:25;101699.16;;;16.57;44.81
21988;BME280;11158;53.404;-1.510;2023-05-18T01:02:09;101711.34;;;16.89;44.15
21988;BME280;11158;53.404;-1.510;2023-05-18T01:04:55;101699.91;;;17.15;43.20
21988;BME280;11158;53.404;-1.510;2023-05-18T01:07:40;101706.13;;;17.09;42.97
21988;BME280;11158;53.404;-1.510;2023-05-18T01:10:29;101711.78;;;16.49;44.05
21988;BME280;11158;53.404;-1.510;2023-05-18T01:13:22;101709.16;;;16.20;44.36
21988;BME280;11158;53.404;-1.510;2023-05-18T01:16:09;101709.56;;;15.87;45.55
21988;BME280;11158;53.404;-1.510;2023-05-18T01:19:02;101712.72;;;15.76;45.75
21988;BME280;11158;53.404;-1.510;2023-05-18T01:22:06;101704.06;;;16.68;43.94
21988;BME280;11158;53.404;-1.510;2023-05-18T01:25:27;101706.63;;;16.76;43.61
21988;BME280;11158;53.404;-1.510;2023-05-18T01:28:11;101710.78;;;16.79;43.09
21988;BME280;11158;53.404;-1.510;2023-05-18T01:30:56;101707.00;;;16.73;42.82
21988;BME280;11158;53.404;-1.510;2023-05-18T01:33:42;101713.88;;;16.75;42.91
21988;BME280;11158;53.404;-1.510;2023-05-18T01:36:26;101707.91;;;17.02;41.94
21988;BME280;11158;53.404;-1.510;2023-05-18T01:39:10;101698.78;;;16.81;42.29
21988;BME280;11158;53.404;-1.510;2023-05-18T01:41:58;101699.00;;;16.22;43.50
21988;BME280;11158;53.404;-1.510;2023-05-18T01:44:50;101705.97;;;16.52;42.88
21988;BME280;11158;53.404;-1.510;2023-05-18T01:47:37;101706.13;;;16.66;43.22
21988;BME280;11158;53.404;-1.510;2023-05-18T01:50:32;101696.91;;;16.60;43.51
21988;BME280;11158;53.404;-1.510;2023-05-18T01:56:09;101691.19;;;16.27;44.72
21988;BME280;11158;53.404;-1.510;2023-05-18T01:58:53;101690.44;;;16.54;43.60
21988;BME280;11158;53.404;-1.510;2023-05-18T02:01:38;101684.34;;;17.17;42.46
21988;BME280;11158;53.404;-1.510;2023-05-18T02:04:22;101688.25;;;17.43;42.11
21988;BME280;11158;53.404;-1.510;2023-05-18T02:07:06;101676.09;;;17.60;41.50
21988;BME280;11158;53.404;-1.510;2023-05-18T02:09:50;101683.81;;;17.70;41.73
21988;BME280;11158;53.404;-1.510;2023-05-18T02:12:34;101693.09;;;17.54;42.40
21988;BME280;11158;53.404;-1.510;2023-05-18T02:15:20;101685.81;;;17.54;42.77
21988;BME280;11158;53.404;-1.510;2023-05-18T02:18:04;101682.47;;;17.46;43.08
21988;BME280;11158;53.404;-1.510;2023-05-18T02:20:48;101691.00;;;17.49;42.97
21988;BME280;11158;53.404;-1.510;2023-05-18T02:23:33;101689.56;;;17.53;42.90
21988;BME280;11158;53.404;-1.510;2023-05-18T02:26:17;101684.19;;;17.60;42.83
21988;BME280;11158;53.404;-1.510;2023-05-18T02:29:01;101676.91;;;17.61;42.00
21988;BME280;11158;53.404;-1.510;2023-05-18T02:31:46;101685.41;;;17.92;41.16
21988;BME280;11158;53.404;-1.510;2023-05-18T02:34:30;101673.56;;;17.87;41.18
21988;BME280;11158;53.404;-1.510;2023-05-18T02:37:15;101675.81;;;17.83;41.76
21988;BME280;11158;53.404;-1.510;2023-05-18T02:39:59;101677.03;;;17.80;41.96
21988;BME280;11158;53.404;-1.510;2023-05-18T02:42:44;101680.03;;;17.99;41.43
21988;BME280;11158;53.404;-1.510;2023-05-18T02:45:28;101682.13;;;17.97;41.25
21988;BME280;11158;53.404;-1.510;2023-05-18T02:48:12;101688.47;;;17.41;42.67
21988;BME280;11158;53.404;-1.510;2023-05-18T02:50:56;101688.38;;;17.28;42.84
21988;BME280;11158;53.404;-1.510;2023-05-18T02:53:41;101696.84;;;16.75;44.29
21988;BME280;11158;53.404;-1.510;2023-05-18T02:56:28;101692.63;;;17.15;43.78
21988;BME280;11158;53.404;-1.510;2023-05-18T02:59:12;101687.78;;;17.32;43.29
21988;BME280;11158;53.404;-1.510;2023-05-18T03:01:56;101685.53;;;17.43;43.51
21988;BME280;11158;53.404;-1.510;2023-05-18T03:04:41;101688.72;;;17.18;43.70
21988;BME280;11158;53.404;-1.510;2023-05-18T03:07:25;101692.00;;;17.42;43.14
21988;BME280;11158;53.404;-1.510;2023-05-18T03:10:10;101692.09;;;17.55;42.82
21988;BME280;11158;53.404;-1.510;2023-05-18T03:12:55;101691.63;;;17.16;42.95
21988;BME280;11158;53.404;-1.510;2023-05-18T03:15:39;101697.25;;;17.22;42.65
21988;BME280;11158;53.404;-1.510;2023-05-18T03:18:23;101698.34;;;17.27;41.66
21988;BME280;11158;53.404;-1.510;2023-05-18T03:21:08;101697.16;;;17.36;41.58
21988;BME280;11158;53.404;-1.510;2023-05-18T03:23:53;101691.75;;;17.36;41.31
21988;BME280;11158;53.404;-1.510;2023-05-18T03:26:37;101693.97;;;17.26;41.57
21988;BME280;11158;53.404;-1.510;2023-05-18T03:29:22;101692.50;;;17.24;41.67
21988;BME280;11158;53.404;-1.510;2023-05-18T03:32:06;101690.47;;;17.32;41.99
21988;BME280;11158;53.404;-1.510;2023-05-18T03:34:51;101698.41;;;16.84;42.81
21988;BME280;11158;53.404;-1.510;2023-05-18T03:37:35;101687.59;;;16.63;43.18
21988;BME280;11158;53.404;-1.510;2023-05-18T03:40:20;101689.91;;;16.87;42.45
21988;BME280;11158;53.404;-1.510;2023-05-18T03:43:05;101695.97;;;16.89;42.48
21988;BME280;11158;53.404;-1.510;2023-05-18T03:45:49;101687.03;;;17.17;42.18
21988;BME280;11158;53.404;-1.510;2023-05-18T03:48:33;101685.31;;;17.37;41.64
21988;BME280;11158;53.404;-1.510;2023-05-18T03:51:17;101692.84;;;17.14;42.57
21988;BME280;11158;53.404;-1.510;2023-05-18T03:54:01;101702.25;;;16.96;43.21
21988;BME280;11158;53.404;-1.510;2023-05-18T03:56:45;101694.97;;;16.75;43.48
21988;BME280;11158;53.404;-1.510;2023-05-18T03:59:30;101695.94;;;16.10;44.70
21988;BME280;11158;53.404;-1.510;2023-05-18T04:02:14;101702.94;;;15.45;46.60
21988;BME280;11158;53.404;-1.510;2023-05-18T04:04:59;101698.66;;;15.36;46.84
21988;BME280;11158;53.404;-1.510;2023-05-18T04:07:44;101695.72;;;15.90;45.40
21988;BME280;11158;53.404;-1.510;2023-05-18T04:10:29;101699.50;;;15.96;45.64
21988;BME280;11158;53.404;-1.510;2023-05-18T04:13:14;101695.63;;;15.54;46.33
21988;BME280;11158;53.404;-1.510;2023-05-18T04:15:58;101696.16;;;15.49;46.38
21988;BME280;11158;53.404;-1.510;2023-05-18T04:18:42;101694.88;;;15.89;45.55
21988;BME280;11158;53.404;-1.510;2023-05-18T04:21:27;101691.88;;;15.25;47.19
21988;BME280;11158;53.404;-1.510;2023-05-18T04:24:18;101693.94;;;14.54;49.16
21988;BME280;11158;53.404;-1.510;2023-05-18T04:27:02;101702.91;;;14.23;50.40
21988;BME280;11158;53.404;-1.510;2023-05-18T04:29:47;101702.19;;;14.29;50.45
21988;BME280;11158;53.404;-1.510;2023-05-18T04:32:32;101701.69;;;15.18;48.08
21988;BME280;11158;53.404;-1.510;2023-05-18T04:35:19;101699.81;;;15.71;46.37
21988;BME280;11158;53.404;-1.510;2023-05-18T04:38:03;101686.63;;;16.12;45.73
21988;BME280;11158;53.404;-1.510;2023-05-18T04:40:48;101692.22;;;16.47;45.07
21988;BME280;11158;53.404;-1.510;2023-05-18T04:43:36;101699.16;;;16.57;44.69
21988;BME280;11158;53.404;-1.510;2023-05-18T04:46:20;101695.31;;;16.66;44.46
21988;BME280;11158;53.404;-1.510;2023-05-18T04:49:05;101695.81;;;16.54;44.89
21988;BME280;11158;53.404;-1.510;2023-05-18T04:51:50;101695.09;;;16.67;44.89
21988;BME280;11158;53.404;-1.510;2023-05-18T04:54:38;101694.88;;;16.26;45.90
21988;BME280;11158;53.404;-1.510;2023-05-18T04:57:23;101696.16;;;15.94;47.16
21988;BME280;11158;53.404;-1.510;2023-05-18T05:00:08;101702.63;;;16.14;46.87
21988;BME280;11158;53.404;-1.510;2023-05-18T05:02:53;101712.00;;;15.82;47.54
21988;BME280;11158;53.404;-1.510;2023-05-18T05:05:37;101705.88;;;16.24;46.64
21988;BME280;11158;53.404;-1.510;2023-05-18T05:08:21;101705.44;;;16.42;46.17
21988;BME280;11158;53.404;-1.510;2023-05-18T05:11:05;101703.41;;;16.66;45.87
21988;BME280;11158;53.404;-1.510;2023-05-18T05:13:49;101711.78;;;16.92;45.33
21988;BME280;11158;53.404;-1.510;2023-05-18T05:16:34;101718.34;;;16.83;45.40
21988;BME280;11158;53.404;-1.510;2023-05-18T05:19:18;101712.69;;;17.00;44.98
21988;BME280;11158;53.404;-1.510;2023-05-18T05:22:02;101716.28;;;16.85;45.92
21988;BME280;11158;53.404;-1.510;2023-05-18T05:24:46;101716.47;;;17.05;45.29
21988;BME280;11158;53.404;-1.510;2023-05-18T05:27:30;101708.31;;;17.27;45.01
21988;BME280;11158;53.404;-1.510;2023-05-18T05:30:14;101706.47;;;17.62;44.19
21988;BME280;11158;53.404;-1.510;2023-05-18T05:32:58;101704.50;;;17.84;43.83
21988;BME280;11158;53.404;-1.510;2023-05-18T05:35:43;101701.63;;;17.51;44.76
21988;BME280;11158;53.404;-1.510;2023-05-18T05:38:27;101700.38;;;17.19;45.54
21988;BME280;11158;53.404;-1.510;2023-05-18T05:41:11;101699.09;;;17.49;44.46
21988;BME280;11158;53.404;-1.510;2023-05-18T05:43:56;101694.19;;;17.31;44.68
21988;BME280;11158;53.404;-1.510;2023-05-18T05:46:40;101698.81;;;17.37;44.24
21988;BME280;11158;53.404;-1.510;2023-05-18T05:49:24;101697.00;;;18.21;42.92
21988;BME280;11158;53.404;-1.510;2023-05-18T05:52:08;101700.59;;;18.61;41.89
21988;BME280;11158;53.404;-1.510;2023-05-18T05:54:53;101697.72;;;18.96;41.71
21988;BME280;11158;53.404;-1.510;2023-05-18T05:57:37;101698.97;;;19.14;40.47
21988;BME280;11158;53.404;-1.510;2023-05-18T06:00:25;101701.50;;;19.09;40.92
21988;BME280;11158;53.404;-1.510;2023-05-18T06:03:11;101708.97;;;18.80;41.36
21988;BME280;11158;53.404;-1.510;2023-05-18T06:05:55;101701.50;;;19.02;41.21
21988;BME280;11158;53.404;-1.510;2023-05-18T06:08:40;101699.38;;;19.31;40.94
21988;BME280;11158;53.404;-1.510;2023-05-18T06:11:24;101698.72;;;19.49;40.38
21988;BME280;11158;53.404;-1.510;2023-05-18T06:14:08;101702.69;;;19.39;40.68
21988;BME280;11158;53.404;-1.510;2023-05-18T06:16:52;101704.41;;;18.87;41.69
21988;BME280;11158;53.404;-1.510;2023-05-18T06:19:36;101710.41;;;18.69;42.15
21988;BME280;11158;53.404;-1.510;2023-05-18T06:22:20;101706.47;;;18.92;41.85
21988;BME280;11158;53.404;-1.510;2023-05-18T06:25:06;101701.94;;;18.99;41.95
21988;BME280;11158;53.404;-1.510;2023-05-18T06:27:51;101694.38;;;19.21;41.28
21988;BME280;11158;53.404;-1.510;2023-05-18T06:30:35;101697.06;;;19.48;40.73
21988;BME280;11158;53.404;-1.510;2023-05-18T06:33:19;101694.28;;;19.81;40.38
21988;BME280;11158;53.404;-1.510;2023-05-18T06:36:04;101695.41;;;20.12;39.16
21988;BME280;11158;53.404;-1.510;2023-05-18T06:38:48;101697.31;;;20.43;38.74
21988;BME280;11158;53.404;-1.510;2023-05-18T06:41:32;101703.84;;;20.35;38.11
21988;BME280;11158;53.404;-1.510;2023-05-18T06:44:16;101694.13;;;20.59;37.62
21988;BME280;11158;53.404;-1.510;2023-05-18T06:47:01;101691.28;;;21.23;36.17
21988;BME280;11158;53.404;-1.510;2023-05-18T06:49:45;101694.06;;;21.60;35.66
21988;BME280;11158;53.404;-1.510;2023-05-18T06:52:28;101682.25;;;22.03;35.14
21988;BME280;11158;53.404;-1.510;2023-05-18T06:55:13;101682.78;;;22.42;34.18
21988;BME280;11158;53.404;-1.510;2023-05-18T06:57:58;101682.91;;;23.00;33.30
21988;BME280;11158;53.404;-1.510;2023-05-18T07:00:44;101680.28;;;23.53;31.67
21988;BME280;11158;53.404;-1.510;2023-05-18T07:03:28;101683.31;;;24.20;30.47
21988;BME280;11158;53.404;-1.510;2023-05-18T07:06:13;101684.88;;;24.62;30.00
21988;BME280;11158;53.404;-1.510;2023-05-18T07:08:57;101679.19;;;25.97;27.89
21988;BME280;11158;53.404;-1.510;2023-05-18T07:11:41;101674.84;;;27.20;26.50
21988;BME280;11158;53.404;-1.510;2023-05-18T07:14:25;101668.63;;;27.88;24.68
21988;BME280;11158;53.404;-1.510;2023-05-18T07:17:09;101665.09;;;28.28;24.44
21988;BME280;11158;53.404;-1.510;2023-05-18T07:19:53;101670.09;;;29.18;23.16
21988;BME280;11158;53.404;-1.510;2023-05-18T07:22:37;101670.06;;;28.93;23.46
21988;BME280;11158;53.404;-1.510;2023-05-18T07:25:22;101672.59;;;28.64;23.56
21988;BME280;11158;53.404;-1.510;2023-05-18T07:28:07;101677.88;;;27.76;24.11
21988;BME280;11158;53.404;-1.510;2023-05-18T07:30:51;101675.88;;;27.14;24.98
21988;BME280;11158;53.404;-1.510;2023-05-18T07:33:35;101670.00;;;26.08;26.16
21988;BME280;11158;53.404;-1.510;2023-05-18T07:36:19;101676.91;;;25.45;27.22
21988;BME280;11158;53.404;-1.510;2023-05-18T07:39:04;101689.78;;;24.94;27.13
21988;BME280;11158;53.404;-1.510;2023-05-18T07:41:48;101686.41;;;23.83;28.97
21988;BME280;11158;53.404;-1.510;2023-05-18T07:44:33;101681.41;;;24.50;28.52
21988;BME280;11158;53.404;-1.510;2023-05-18T07:47:17;101678.94;;;24.65;28.02
21988;BME280;11158;53.404;-1.510;2023-05-18T07:50:04;101675.59;;;24.97;27.70
21988;BME280;11158;53.404;-1.510;2023-05-18T07:52:49;101669.91;;;24.48;28.14
21988;BME280;11158;53.404;-1.510;2023-05-18T07:55:33;101673.31;;;25.22;27.55
21988;BME280;11158;53.404;-1.510;2023-05-18T07:58:17;101669.31;;;25.30;26.95
21988;BME280;11158;53.404;-1.510;2023-05-18T08:01:01;101665.84;;;25.01;27.90
21988;BME280;11158;53.404;-1.510;2023-05-18T08:03:45;101663.66;;;25.37;27.59
21988;BME280;11158;53.404;-1.510;2023-05-18T08:06:29;101661.13;;;25.52;27.26
21988;BME280;11158;53.404;-1.510;2023-05-18T08:09:14;101659.47;;;25.73;26.29
21988;BME280;11158;53.404;-1.510;2023-05-18T08:11:59;101657.59;;;25.79;26.86
21988;BME280;11158;53.404;-1.510;2023-05-18T08:14:43;101653.19;;;26.00;25.73
21988;BME280;11158;53.404;-1.510;2023-05-18T08:17:28;101657.97;;;26.09;24.88
21988;BME280;11158;53.404;-1.510;2023-05-18T08:20:12;101653.97;;;26.22;24.85
21988;BME280;11158;53.404;-1.510;2023-05-18T08:22:56;101667.97;;;24.99;25.26
21988;BME280;11158;53.404;-1.510;2023-05-18T08:25:40;101669.97;;;25.03;24.90
21988;BME280;11158;53.404;-1.510;2023-05-18T08:28:25;101662.03;;;24.85;24.93
21988;BME280;11158;53.404;-1.510;2023-05-18T08:31:10;101669.28;;;24.45;24.90
21988;BME280;11158;53.404;-1.510;2023-05-18T08:33:55;101669.00;;;24.76;25.00
21988;BME280;11158;53.404;-1.510;2023-05-18T08:36:39;101665.34;;;24.87;24.83
21988;BME280;11158;53.404;-1.510;2023-05-18T08:39:25;101673.69;;;24.46;25.49
21988;BME280;11158;53.404;-1.510;2023-05-18T08:42:20;101672.63;;;23.90;25.60
21988;BME280;11158;53.404;-1.510;2023-05-18T08:45:14;101667.03;;;23.97;26.51
21988;BME280;11158;53.404;-1.510;2023-05-18T08:48:02;101669.56;;;23.75;26.85
21988;BME280;11158;53.404;-1.510;2023-05-18T08:50:47;101659.06;;;23.95;26.72
21988;BME280;11158;53.404;-1.510;2023-05-18T08:53:32;101660.81;;;23.61;27.03
21988;BME280;11158;53.404;-1.510;2023-05-18T08:56:23;101665.28;;;23.79;27.09
21988;BME280;11158;53.404;-1.510;2023-05-18T08:59:09;101664.97;;;24.04;27.10
21988;BME280;11158;53.404;-1.510;2023-05-18T09:01:54;101659.78;;;24.99;25.78
21988;BME280;11158;53.404;-1.510;2023-05-18T09:04:39;101657.66;;;24.67;26.52
21988;BME280;11158;53.404;-1.510;2023-05-18T09:07:25;101648.44;;;25.46;25.30
21988;BME280;11158;53.404;-1.510;2023-05-18T09:10:11;101643.16;;;25.61;25.50
21988;BME280;11158;53.404;-1.510;2023-05-18T09:12:57;101644.09;;;25.28;25.69
21988;BME280;11158;53.404;-1.510;2023-05-18T09:15:42;101644.00;;;25.84;24.75
21988;BME280;11158;53.404;-1.510;2023-05-18T09:18:26;101638.59;;;25.89;25.17
21988;BME280;11158;53.404;-1.510;2023-05-18T09:21:10;101639.47;;;25.95;25.19
21988;BME280;11158;53.404;-1.510;2023-05-18T09:23:55;101641.25;;;26.38;25.04
21988;BME280;11158;53.404;-1.510;2023-05-18T09:26:39;101638.06;;;26.19;25.01
21988;BME280;11158;53.404;-1.510;2023-05-18T09:29:23;101636.41;;;25.47;25.92
21988;BME280;11158;53.404;-1.510;2023-05-18T09:32:09;101633.34;;;25.65;26.23
21988;BME280;11158;53.404;-1.510;2023-05-18T09:34:54;101629.28;;;26.49;25.16
21988;BME280;11158;53.404;-1.510;2023-05-18T09:37:40;101624.03;;;27.17;24.59
21988;BME280;11158;53.404;-1.510;2023-05-18T09:40:27;101627.13;;;26.19;23.45
21988;BME280;11158;53.404;-1.510;2023-05-18T09:43:12;101628.88;;;26.30;24.17
21988;BME280;11158;53.404;-1.510;2023-05-18T09:45:56;101629.28;;;26.17;23.71
21988;BME280;11158;53.404;-1.510;2023-05-18T09:48:51;101617.56;;;26.91;24.43
21988;BME280;11158;53.404;-1.510;2023-05-18T09:51:37;101628.78;;;27.27;23.71
21988;BME280;11158;53.404;-1.510;2023-05-18T09:54:21;101616.75;;;27.33;23.82
21988;BME280;11158;53.404;-1.510;2023-05-18T09:57:06;101623.84;;;27.24;23.96
21988;BME280;11158;53.404;-1.510;2023-05-18T10:00:02;101623.34;;;25.76;26.48
21988;BME280;11158;53.404;-1.510;2023-05-18T10:02:50;101618.59;;;26.80;25.14
21988;BME280;11158;53.404;-1.510;2023-05-18T10:05:40;101622.16;;;26.16;25.74
21988;BME280;11158;53.404;-1.510;2023-05-18T10:08:25;101621.28;;;25.61;26.13
21988;BME280;11158;53.404;-1.510;2023-05-18T10:11:09;101618.19;;;25.36;27.23
21988;BME280;11158;53.404;-1.510;2023-05-18T10:13:54;101619.75;;;25.70;25.63
21988;BME280;11158;53.404;-1.510;2023-05-18T10:16:41;101618.88;;;26.46;25.58
21988;BME280;11158;53.404;-1.510;2023-05-18T10:19:26;101619.53;;;26.59;25.15
21988;BME280;11158;53.404;-1.510;2023-05-18T10:22:16;101628.13;;;26.40;25.56
21988;BME280;11158;53.404;-1.510;2023-05-18T10:25:04;101620.34;;;26.59;24.74
21988;BME280;11158;53.404;-1.510;2023-05-18T10:27:54;101622.38;;;26.69;24.09
21988;BME280;11158;53.404;-1.510;2023-05-18T10:30:40;101619.53;;;26.59;23.28
21988;BME280;11158;53.404;-1.510;2023-05-18T10:33:26;101619.31;;;26.06;24.04
21988;BME280;11158;53.404;-1.510;2023-05-18T10:36:11;101624.50;;;25.80;24.30
21988;BME280;11158;53.404;-1.510;2023-05-18T10:38:58;101634.38;;;24.64;26.05
21988;BME280;11158;53.404;-1.510;2023-05-18T10:41:44;101629.41;;;25.17;26.30
21988;BME280;11158;53.404;-1.510;2023-05-18T10:44:29;101626.97;;;25.82;25.39
21988;BME280;11158;53.404;-1.510;2023-05-18T10:47:14;101637.94;;;25.38;25.17
21988;BME280;11158;53.404;-1.510;2023-05-18T10:49:58;101635.63;;;25.74;24.52
21988;BME280;11158;53.404;-1.510;2023-05-18T10:52:44;101631.44;;;26.42;24.43
21988;BME280;11158;53.404;-1.510;2023-05-18T10:55:30;101634.63;;;26.34;24.35
21988;BME280;11158;53.404;-1.510;2023-05-18T10:58:16;101641.00;;;24.69;26.98
21988;BME280;11158;53.404;-1.510;2023-05-18T11:01:04;101631.69;;;26.13;25.50
21988;BME280;11158;53.404;-1.510;2023-05-18T11:03:49;101631.97;;;26.71;24.46
21988;BME280;11158;53.404;-1.510;2023-05-18T11:06:34;101637.41;;;27.04;24.20
21988;BME280;11158;53.404;-1.510;2023-05-18T11:09:22;101636.94;;;26.74;25.00
21988;BME280;11158;53.404;-1.510;2023-05-18T11:12:12;101631.47;;;26.47;25.05
21988;BME280;11158;53.404;-1.510;2023-05-18T11:14:56;101636.84;;;27.44;23.68
21988;BME280;11158;53.404;-1.510;2023-05-18T11:17:41;101636.88;;;26.37;24.86
21988;BME280;11158;53.404;-1.510;2023-05-18T11:20:25;101639.09;;;26.13;25.47
21988;BME280;11158;53.404;-1.510;2023-05-18T11:23:09;101636.50;;;26.56;24.70
21988;BME280;11158;53.404;-1.510;2023-05-18T11:25:53;101630.66;;;26.79;24.28
21988;BME280;11158;53.404;-1.510;2023-05-18T11:28:42;101629.91;;;25.97;24.67
21988;BME280;11158;53.404;-1.510;2023-05-18T11:31:50;101632.84;;;26.82;24.63
21988;BME280;11158;53.404;-1.510;2023-05-18T11:34:40;101629.78;;;27.16;24.00
21988;BME280;11158;53.404;-1.510;2023-05-18T11:40:43;101632.38;;;28.11;22.89
21988;BME280;11158;53.404;-1.510;2023-05-18T11:43:29;101631.78;;;27.99;23.49
21988;BME280;11158;53.404;-1.510;2023-05-18T11:46:17;101632.75;;;27.52;24.05
21988;BME280;11158;53.404;-1.510;2023-05-18T11:49:08;101635.72;;;27.03;24.02
21988;BME280;11158;53.404;-1.510;2023-05-18T11:52:20;101638.72;;;27.39;23.28
21988;BME280;11158;53.404;-1.510;2023-05-18T11:55:04;101644.69;;;27.30;23.18
21988;BME280;11158;53.404;-1.510;2023-05-18T11:57:50;101634.75;;;27.77;22.77
21988;BME280;11158;53.404;-1.510;2023-05-18T12:00:36;101630.81;;;27.52;23.18
21988;BME280;11158;53.404;-1.510;2023-05-18T12:03:25;101640.91;;;28.25;22.80
21988;BME280;11158;53.404;-1.510;2023-05-18T12:06:09;101629.94;;;28.56;22.04
21988;BME280;11158;53.404;-1.510;2023-05-18T12:08:54;101627.41;;;27.88;22.97
21988;BME280;11158;53.404;-1.510;2023-05-18T12:11:39;101628.84;;;28.41;22.19
21988;BME280;11158;53.404;-1.510;2023-05-18T12:14:22;101631.84;;;28.91;21.81
21988;BME280;11158;53.404;-1.510;2023-05-18T12:17:08;101621.91;;;28.95;21.44
21988;BME280;11158;53.404;-1.510;2023-05-18T12:19:53;101618.09;;;28.14;22.36
21988;BME280;11158;53.404;-1.510;2023-05-18T12:22:38;101628.94;;;27.63;23.02
21988;BME280;11158;53.404;-1.510;2023-05-18T12:25:24;101617.88;;;27.43;22.84
21988;BME280;11158;53.404;-1.510;2023-05-18T12:28:11;101620.13;;;27.61;23.43
21988;BME280;11158;53.404;-1.510;2023-05-18T12:30:57;101622.09;;;27.76;22.29
21988;BME280;11158;53.404;-1.510;2023-05-18T12:33:42;101615.97;;;27.48;22.73
21988;BME280;11158;53.404;-1.510;2023-05-18T12:36:26;101618.66;;;27.33;23.59
21988;BME280;11158;53.404;-1.510;2023-05-18T12:39:13;101617.31;;;28.50;22.06
21988;BME280;11158;53.404;-1.510;2023-05-18T12:42:12;101608.75;;;28.26;22.83
21988;BME280;11158;53.404;-1.510;2023-05-18T12:44:57;101615.31;;;27.89;22.90
21988;BME280;11158;53.404;-1.510;2023-05-18T12:47:41;101613.06;;;26.75;23.15
21988;BME280;11158;53.404;-1.510;2023-05-18T12:50:25;101613.63;;;26.45;24.82
21988;BME280;11158;53.404;-1.510;2023-05-18T12:53:09;101617.25;;;27.25;23.57
21988;BME280;11158;53.404;-1.510;2023-05-18T12:55:57;101612.63;;;28.55;22.37
21988;BME280;11158;53.404;-1.510;2023-05-18T12:58:57;101619.22;;;28.49;22.49
21988;BME280;11158;53.404;-1.510;2023-05-18T13:01:41;101613.72;;;28.44;22.91
21988;BME280;11158;53.404;-1.510;2023-05-18T13:04:33;101618.66;;;28.27;21.80
21988;BME280;11158;53.404;-1.510;2023-05-18T13:07:20;101613.03;;;27.12;23.54
21988;BME280;11158;53.404;-1.510;2023-05-18T13:10:07;101611.25;;;26.53;23.93
21988;BME280;11158;53.404;-1.510;2023-05-18T13:12:51;101604.78;;;26.65;23.99
21988;BME280;11158;53.404;-1.510;2023-05-18T13:15:37;101608.19;;;26.82;23.29
21988;BME280;11158;53.404;-1.510;2023-05-18T13:18:22;101605.66;;;27.18;22.88
21988;BME280;11158;53.404;-1.510;2023-05-18T13:21:06;101600.25;;;26.48;24.30
21988;BME280;11158;53.404;-1.510;2023-05-18T13:23:51;101596.56;;;26.65;24.33
21988;BME280;11158;53.404;-1.510;2023-05-18T13:26:36;101598.03;;;27.25;23.68
21988;BME280;11158;53.404;-1.510;2023-05-18T13:29:20;101597.19;;;27.88;22.69
21988;BME280;11158;53.404;-1.510;2023-05-18T13:32:04;101598.09;;;27.41;23.04
21988;BME280;11158;53.404;-1.510;2023-05-18T13:34:48;101597.66;;;27.11;22.77
21988;BME280;11158;53.404;-1.510;2023-05-18T13:37:32;101593.06;;;27.95;22.98
21988;BME280;11158;53.404;-1.510;2023-05-18T13:40:17;101601.63;;;28.60;21.38
21988;BME280;11158;53.404;-1.510;2023-05-18T13:43:02;101589.50;;;28.46;21.65
21988;BME280;11158;53.404;-1.510;2023-05-18T13:45:49;101600.84;;;27.35;22.67
21988;BME280;11158;53.404;-1.510;2023-05-18T13:48:33;101597.19;;;28.29;21.38
21988;BME280;11158;53.404;-1.510;2023-05-18T13:51:17;101592.25;;;28.72;21.09
21988;BME280;11158;53.404;-1.510;2023-05-18T13:54:01;101596.13;;;28.71;20.89
21988;BME280;11158;53.404;-1.510;2023-05-18T13:56:46;101596.38;;;28.74;20.37
21988;BME280;11158;53.404;-1.510;2023-05-18T13:59:31;101588.31;;;29.19;19.91
21988;BME280;11158;53.404;-1.510;2023-05-18T14:02:18;101587.19;;;29.20;19.67
21988;BME280;11158;53.404;-1.510;2023-05-18T14:05:02;101580.63;;;29.21;19.89
21988;BME280;11158;53.404;-1.510;2023-05-18T14:07:47;101581.69;;;29.20;19.37
21988;BME280;11158;53.404;-1.510;2023-05-18T14:10:31;101585.13;;;28.66;19.55
21988;BME280;11158;53.404;-1.510;2023-05-18T14:13:15;101580.97;;;28.89;19.36
21988;BME280;11158;53.404;-1.510;2023-05-18T14:15:59;101577.59;;;29.12;19.51
21988;BME280;11158;53.404;-1.510;2023-05-18T14:18:44;101588.97;;;28.49;20.26
21988;BME280;11158;53.404;-1.510;2023-05-18T14:21:28;101579.88;;;28.08;21.44